sensor_id;sensor_type;location;lat;lon;timestamp;P1;durP1;ratioP1;P2;durP2;ratioP2
36443;SDS011;24692;45.642;13.806;2022-09-09T00:06:46;12.03;;;6.50;;
36443;SDS011;24692;45.642;13.806;2022-09-09T00:09:29;11.17;;;6.43;;
36443;SDS011;24692;45.642;13.806;2022-09-09T00:12:16;8.83;;;6.07;;
36443;SDS011;24692;45.642;13.806;2022-09-09T00:15:07;8.83;;;5.07;;
36443;SDS011;24692;45.642;13.806;2022-09-09T00:23:19;9.53;;;5.93;;
36443;SDS011;24692;45.642;13.806;2022-09-09T00:28:20;8.30;;;4.82;;
36443;SDS011;24692;45.642;13.806;2022-09-09T00:30:51;8.83;;;4.80;;
36443;SDS011;24692;45.642;13.806;2022-09-09T00:33:19;6.13;;;4.53;;
36443;SDS011;24692;45.642;13.806;2022-09-09T00:35:57;6.60;;;4.70;;
36443;SDS011;24692;45.642;13.806;2022-09-09T00:38:37;7.17;;;4.40;;
36443;SDS011;24692;45.642;13.806;2022-09-09T00:46:56;14.00;;;4.27;;
36443;SDS011;24692;45.642;13.806;2022-09-09T00:54:46;6.43;;;4.28;;
36443;SDS011;24692;45.642;13.806;2022-09-09T00:57:25;7.40;;;4.23;;
36443;SDS011;24692;45.642;13.806;2022-09-09T01:02:56;6.90;;;4.03;;
36443;SDS011;24692;45.642;13.806;2022-09-09T01:05:36;6.30;;;4.13;;
36443;SDS011;24692;45.642;13.806;2022-09-09T01:08:19;8.67;;;3.87;;
36443;SDS011;24692;45.642;13.806;2022-09-09T01:10:58;9.90;;;3.87;;
36443;SDS011;24692;45.642;13.806;2022-09-09T01:13:25;6.10;;;3.70;;
36443;SDS011;24692;45.642;13.806;2022-09-09T01:15:55;7.93;;;3.63;;
36443;SDS011;24692;45.642;13.806;2022-09-09T01:18:26;6.97;;;4.03;;
36443;SDS011;24692;45.642;13.806;2022-09-09T01:26:51;9.73;;;4.10;;
36443;SDS011;24692;45.642;13.806;2022-09-09T01:29:21;6.33;;;3.80;;
36443;SDS011;24692;45.642;13.806;2022-09-09T01:34:25;8.80;;;4.07;;
36443;SDS011;24692;45.642;13.806;2022-09-09T01:39:31;8.00;;;4.07;;
36443;SDS011;24692;45.642;13.806;2022-09-09T01:41:58;10.37;;;4.00;;
36443;SDS011;24692;45.642;13.806;2022-09-09T01:44:24;11.30;;;4.30;;
36443;SDS011;24692;45.642;13.806;2022-09-09T01:46:52;9.40;;;4.17;;
36443;SDS011;24692;45.642;13.806;2022-09-09T01:49:17;13.13;;;4.23;;
36443;SDS011;24692;45.642;13.806;2022-09-09T01:51:43;10.90;;;4.23;;
36443;SDS011;24692;45.642;13.806;2022-09-09T01:54:14;5.70;;;3.87;;
36443;SDS011;24692;45.642;13.806;2022-09-09T02:02:19;7.87;;;4.50;;
36443;SDS011;24692;45.642;13.806;2022-09-09T02:05:07;13.53;;;4.80;;
36443;SDS011;24692;45.642;13.806;2022-09-09T02:07:57;8.70;;;4.40;;
36443;SDS011;24692;45.642;13.806;2022-09-09T02:10:29;8.20;;;4.50;;
36443;SDS011;24692;45.642;13.806;2022-09-09T02:13:01;8.97;;;4.60;;
36443;SDS011;24692;45.642;13.806;2022-09-09T02:21:12;7.47;;;3.40;;
36443;SDS011;24692;45.642;13.806;2022-09-09T02:23:39;4.57;;;3.00;;
36443;SDS011;24692;45.642;13.806;2022-09-09T02:26:08;4.27;;;2.53;;
36443;SDS011;24692;45.642;13.806;2022-09-09T02:28:38;4.50;;;2.40;;
36443;SDS011;24692;45.642;13.806;2022-09-09T02:31:05;5.73;;;2.50;;
36443;SDS011;24692;45.642;13.806;2022-09-09T02:33:35;4.03;;;2.53;;
36443;SDS011;24692;45.642;13.806;2022-09-09T02:36:05;4.40;;;2.27;;
36443;SDS011;24692;45.642;13.806;2022-09-09T02:38:35;2.80;;;2.20;;
36443;SDS011;24692;45.642;13.806;2022-09-09T02:41:04;5.37;;;2.47;;
36443;SDS011;24692;45.642;13.806;2022-09-09T02:43:34;5.20;;;2.10;;
36443;SDS011;24692;45.642;13.806;2022-09-09T02:48:35;4.30;;;2.57;;
36443;SDS011;24692;45.642;13.806;2022-09-09T02:51:24;3.43;;;2.20;;
36443;SDS011;24692;45.642;13.806;2022-09-09T02:54:16;4.53;;;2.30;;
36443;SDS011;24692;45.642;13.806;2022-09-09T02:56:53;4.50;;;2.50;;
36443;SDS011;24692;45.642;13.806;2022-09-09T02:59:22;4.07;;;2.40;;
36443;SDS011;24692;45.642;13.806;2022-09-09T03:01:49;4.57;;;2.10;;
36443;SDS011;24692;45.642;13.806;2022-09-09T03:04:15;3.20;;;2.30;;
36443;SDS011;24692;45.642;13.806;2022-09-09T03:06:41;5.73;;;2.43;;
36443;SDS011;24692;45.642;13.806;2022-09-09T03:09:07;4.90;;;2.17;;
36443;SDS011;24692;45.642;13.806;2022-09-09T03:11:35;4.82;;;2.45;;
36443;SDS011;24692;45.642;13.806;2022-09-09T03:14:01;3.40;;;2.10;;
36443;SDS011;24692;45.642;13.806;2022-09-09T03:16:27;3.10;;;2.03;;
36443;SDS011;24692;45.642;13.806;2022-09-09T03:18:53;3.03;;;2.17;;
36443;SDS011;24692;45.642;13.806;2022-09-09T03:21:19;2.63;;;2.20;;
36443;SDS011;24692;45.642;13.806;2022-09-09T03:23:45;4.80;;;1.83;;
36443;SDS011;24692;45.642;13.806;2022-09-09T03:26:11;4.00;;;1.90;;
36443;SDS011;24692;45.642;13.806;2022-09-09T03:28:37;4.87;;;2.30;;
36443;SDS011;24692;45.642;13.806;2022-09-09T03:31:03;2.23;;;1.80;;
36443;SDS011;24692;45.642;13.806;2022-09-09T03:33:30;3.13;;;2.03;;
36443;SDS011;24692;45.642;13.806;2022-09-09T03:35:56;2.83;;;2.00;;
36443;SDS011;24692;45.642;13.806;2022-09-09T03:38:22;3.43;;;2.03;;
36443;SDS011;24692;45.642;13.806;2022-09-09T03:40:49;4.87;;;2.00;;
36443;SDS011;24692;45.642;13.806;2022-09-09T03:43:16;5.10;;;1.83;;
36443;SDS011;24692;45.642;13.806;2022-09-09T03:45:45;3.30;;;2.00;;
36443;SDS011;24692;45.642;13.806;2022-09-09T03:48:15;4.43;;;2.30;;
36443;SDS011;24692;45.642;13.806;2022-09-09T03:50:45;8.27;;;2.40;;
36443;SDS011;24692;45.642;13.806;2022-09-09T03:53:12;4.83;;;2.60;;
36443;SDS011;24692;45.642;13.806;2022-09-09T03:55:38;4.72;;;2.40;;
36443;SDS011;24692;45.642;13.806;2022-09-09T03:58:06;5.50;;;2.57;;
36443;SDS011;24692;45.642;13.806;2022-09-09T04:00:32;7.30;;;2.60;;
36443;SDS011;24692;45.642;13.806;2022-09-09T04:02:58;6.90;;;2.50;;
36443;SDS011;24692;45.642;13.806;2022-09-09T04:05:24;6.47;;;2.50;;
36443;SDS011;24692;45.642;13.806;2022-09-09T04:07:49;4.53;;;2.43;;
36443;SDS011;24692;45.642;13.806;2022-09-09T04:10:16;5.93;;;2.77;;
36443;SDS011;24692;45.642;13.806;2022-09-09T04:12:42;3.40;;;2.50;;
36443;SDS011;24692;45.642;13.806;2022-09-09T04:15:07;3.17;;;2.77;;
36443;SDS011;24692;45.642;13.806;2022-09-09T04:17:33;8.73;;;3.17;;
36443;SDS011;24692;45.642;13.806;2022-09-09T04:20:01;5.07;;;2.87;;
36443;SDS011;24692;45.642;13.806;2022-09-09T04:22:27;5.53;;;3.20;;
36443;SDS011;24692;45.642;13.806;2022-09-09T04:24:52;6.00;;;3.37;;
36443;SDS011;24692;45.642;13.806;2022-09-09T04:27:18;8.43;;;3.30;;
36443;SDS011;24692;45.642;13.806;2022-09-09T04:29:44;7.93;;;3.33;;
36443;SDS011;24692;45.642;13.806;2022-09-09T04:32:09;5.17;;;3.30;;
36443;SDS011;24692;45.642;13.806;2022-09-09T04:34:35;9.40;;;3.33;;
36443;SDS011;24692;45.642;13.806;2022-09-09T04:37:01;8.40;;;3.20;;
36443;SDS011;24692;45.642;13.806;2022-09-09T04:39:27;6.67;;;3.10;;
36443;SDS011;24692;45.642;13.806;2022-09-09T04:41:52;7.40;;;3.40;;
36443;SDS011;24692;45.642;13.806;2022-09-09T04:44:18;8.33;;;3.10;;
36443;SDS011;24692;45.642;13.806;2022-09-09T04:46:43;8.80;;;3.17;;
36443;SDS011;24692;45.642;13.806;2022-09-09T04:49:10;5.90;;;3.20;;
36443;SDS011;24692;45.642;13.806;2022-09-09T04:51:35;8.40;;;3.50;;
36443;SDS011;24692;45.642;13.806;2022-09-09T04:54:01;8.83;;;3.43;;
36443;SDS011;24692;45.642;13.806;2022-09-09T04:56:26;5.57;;;3.07;;
36443;SDS011;24692;45.642;13.806;2022-09-09T04:58:53;6.33;;;3.10;;
36443;SDS011;24692;45.642;13.806;2022-09-09T05:01:20;7.63;;;3.15;;
36443;SDS011;24692;45.642;13.806;2022-09-09T05:03:47;5.20;;;2.60;;
36443;SDS011;24692;45.642;13.806;2022-09-09T05:06:14;7.07;;;3.10;;
36443;SDS011;24692;45.642;13.806;2022-09-09T05:08:41;8.57;;;3.37;;
36443;SDS011;24692;45.642;13.806;2022-09-09T05:11:14;6.53;;;3.47;;
36443;SDS011;24692;45.642;13.806;2022-09-09T05:13:45;6.05;;;3.15;;
36443;SDS011;24692;45.642;13.806;2022-09-09T05:16:11;4.50;;;3.13;;
36443;SDS011;24692;45.642;13.806;2022-09-09T05:18:38;7.90;;;3.50;;
36443;SDS011;24692;45.642;13.806;2022-09-09T05:21:05;7.03;;;3.47;;
36443;SDS011;24692;45.642;13.806;2022-09-09T05:23:32;5.80;;;3.63;;
36443;SDS011;24692;45.642;13.806;2022-09-09T05:26:02;9.13;;;3.60;;
36443;SDS011;24692;45.642;13.806;2022-09-09T05:28:28;6.90;;;3.93;;
36443;SDS011;24692;45.642;13.806;2022-09-09T05:30:58;7.90;;;3.63;;
36443;SDS011;24692;45.642;13.806;2022-09-09T05:33:29;8.53;;;3.67;;
36443;SDS011;24692;45.642;13.806;2022-09-09T05:35:57;6.67;;;3.80;;
36443;SDS011;24692;45.642;13.806;2022-09-09T05:38:33;7.07;;;3.27;;
36443;SDS011;24692;45.642;13.806;2022-09-09T05:41:00;8.27;;;3.90;;
36443;SDS011;24692;45.642;13.806;2022-09-09T05:43:27;6.27;;;3.00;;
36443;SDS011;24692;45.642;13.806;2022-09-09T05:46:07;5.83;;;3.10;;
36443;SDS011;24692;45.642;13.806;2022-09-09T05:48:35;7.93;;;3.47;;
36443;SDS011;24692;45.642;13.806;2022-09-09T05:51:02;6.77;;;3.67;;
36443;SDS011;24692;45.642;13.806;2022-09-09T05:53:29;8.90;;;3.30;;
36443;SDS011;24692;45.642;13.806;2022-09-09T05:56:03;4.93;;;3.00;;
36443;SDS011;24692;45.642;13.806;2022-09-09T05:58:30;7.25;;;3.30;;
36443;SDS011;24692;45.642;13.806;2022-09-09T06:01:03;6.47;;;3.10;;
36443;SDS011;24692;45.642;13.806;2022-09-09T06:03:31;7.23;;;3.50;;
36443;SDS011;24692;45.642;13.806;2022-09-09T06:06:02;7.57;;;3.53;;
36443;SDS011;24692;45.642;13.806;2022-09-09T06:08:35;6.63;;;3.10;;
36443;SDS011;24692;45.642;13.806;2022-09-09T06:11:04;6.07;;;3.38;;
36443;SDS011;24692;45.642;13.806;2022-09-09T06:13:34;7.78;;;3.72;;
36443;SDS011;24692;45.642;13.806;2022-09-09T06:16:02;8.23;;;3.55;;
36443;SDS011;24692;45.642;13.806;2022-09-09T06:18:29;6.55;;;3.65;;
36443;SDS011;24692;45.642;13.806;2022-09-09T06:20:55;6.85;;;3.83;;
36443;SDS011;24692;45.642;13.806;2022-09-09T06:23:22;7.70;;;3.70;;
36443;SDS011;24692;45.642;13.806;2022-09-09T06:25:49;7.83;;;3.17;;
36443;SDS011;24692;45.642;13.806;2022-09-09T06:28:15;5.82;;;2.95;;
36443;SDS011;24692;45.642;13.806;2022-09-09T06:30:41;7.75;;;3.70;;
36443;SDS011;24692;45.642;13.806;2022-09-09T06:33:07;5.93;;;3.33;;
36443;SDS011;24692;45.642;13.806;2022-09-09T06:35:32;6.68;;;3.05;;
36443;SDS011;24692;45.642;13.806;2022-09-09T06:37:58;8.68;;;3.58;;
36443;SDS011;24692;45.642;13.806;2022-09-09T06:40:24;6.10;;;3.17;;
36443;SDS011;24692;45.642;13.806;2022-09-09T06:42:50;7.13;;;3.20;;
36443;SDS011;24692;45.642;13.806;2022-09-09T06:45:16;9.02;;;3.47;;
36443;SDS011;24692;45.642;13.806;2022-09-09T06:47:42;7.05;;;3.20;;
36443;SDS011;24692;45.642;13.806;2022-09-09T06:50:08;7.38;;;3.20;;
36443;SDS011;24692;45.642;13.806;2022-09-09T06:52:35;7.75;;;3.55;;
36443;SDS011;24692;45.642;13.806;2022-09-09T06:55:01;7.70;;;3.40;;
36443;SDS011;24692;45.642;13.806;2022-09-09T06:57:27;4.82;;;3.53;;
36443;SDS011;24692;45.642;13.806;2022-09-09T06:59:53;4.72;;;3.30;;
36443;SDS011;24692;45.642;13.806;2022-09-09T07:02:19;6.85;;;3.53;;
36443;SDS011;24692;45.642;13.806;2022-09-09T07:04:45;7.83;;;3.60;;
36443;SDS011;24692;45.642;13.806;2022-09-09T07:07:10;7.97;;;3.38;;
36443;SDS011;24692;45.642;13.806;2022-09-09T07:09:38;5.40;;;3.00;;
36443;SDS011;24692;45.642;13.806;2022-09-09T07:12:05;7.07;;;2.95;;
36443;SDS011;24692;45.642;13.806;2022-09-09T07:14:31;8.57;;;2.85;;
36443;SDS011;24692;45.642;13.806;2022-09-09T07:16:58;4.47;;;2.95;;
36443;SDS011;24692;45.642;13.806;2022-09-09T07:19:25;6.68;;;2.55;;
36443;SDS011;24692;45.642;13.806;2022-09-09T07:21:50;4.45;;;2.50;;
36443;SDS011;24692;45.642;13.806;2022-09-09T07:24:16;7.50;;;2.47;;
36443;SDS011;24692;45.642;13.806;2022-09-09T07:26:42;6.25;;;2.20;;
36443;SDS011;24692;45.642;13.806;2022-09-09T07:29:09;4.25;;;2.25;;
36443;SDS011;24692;45.642;13.806;2022-09-09T07:31:37;5.70;;;2.20;;
36443;SDS011;24692;45.642;13.806;2022-09-09T07:34:05;5.78;;;2.33;;
36443;SDS011;24692;45.642;13.806;2022-09-09T07:36:32;7.95;;;2.70;;
36443;SDS011;24692;45.642;13.806;2022-09-09T07:39:00;6.43;;;2.35;;
36443;SDS011;24692;45.642;13.806;2022-09-09T07:41:34;4.53;;;2.30;;
36443;SDS011;24692;45.642;13.806;2022-09-09T07:44:06;6.72;;;2.35;;
36443;SDS011;24692;45.642;13.806;2022-09-09T07:46:36;3.95;;;2.35;;
36443;SDS011;24692;45.642;13.806;2022-09-09T07:49:04;6.78;;;2.35;;
36443;SDS011;24692;45.642;13.806;2022-09-09T07:51:31;3.90;;;2.13;;
36443;SDS011;24692;45.642;13.806;2022-09-09T07:53:59;7.30;;;2.22;;
36443;SDS011;24692;45.642;13.806;2022-09-09T07:56:27;5.68;;;2.05;;
36443;SDS011;24692;45.642;13.806;2022-09-09T07:58:54;5.72;;;2.30;;
36443;SDS011;24692;45.642;13.806;2022-09-09T08:01:28;5.63;;;2.13;;
36443;SDS011;24692;45.642;13.806;2022-09-09T08:06:30;5.68;;;2.17;;
36443;SDS011;24692;45.642;13.806;2022-09-09T08:08:58;6.95;;;2.30;;
36443;SDS011;24692;45.642;13.806;2022-09-09T08:11:24;6.30;;;2.30;;
36443;SDS011;24692;45.642;13.806;2022-09-09T08:13:51;5.90;;;2.45;;
36443;SDS011;24692;45.642;13.806;2022-09-09T08:16:19;5.43;;;2.20;;
36443;SDS011;24692;45.642;13.806;2022-09-09T08:18:47;6.95;;;2.53;;
36443;SDS011;24692;45.642;13.806;2022-09-09T08:21:19;7.40;;;2.88;;
36443;SDS011;24692;45.642;13.806;2022-09-09T08:23:50;5.82;;;2.47;;
36443;SDS011;24692;45.642;13.806;2022-09-09T08:26:18;7.40;;;2.50;;
36443;SDS011;24692;45.642;13.806;2022-09-09T08:28:49;6.30;;;2.78;;
36443;SDS011;24692;45.642;13.806;2022-09-09T08:31:21;4.78;;;2.70;;
36443;SDS011;24692;45.642;13.806;2022-09-09T08:34:07;7.18;;;2.88;;
36443;SDS011;24692;45.642;13.806;2022-09-09T08:36:37;7.00;;;3.13;;
36443;SDS011;24692;45.642;13.806;2022-09-09T08:39:09;8.05;;;3.30;;
36443;SDS011;24692;45.642;13.806;2022-09-09T08:52:32;9.52;;;3.53;;
36443;SDS011;24692;45.642;13.806;2022-09-09T08:57:57;7.10;;;3.35;;
36443;SDS011;24692;45.642;13.806;2022-09-09T09:00:39;7.55;;;3.17;;
36443;SDS011;24692;45.642;13.806;2022-09-09T09:05:54;6.10;;;2.90;;
36443;SDS011;24692;45.642;13.806;2022-09-09T09:11:22;6.43;;;3.05;;
36443;SDS011;24692;45.642;13.806;2022-09-09T09:13:50;9.25;;;3.30;;
36443;SDS011;24692;45.642;13.806;2022-09-09T09:19:13;5.18;;;2.80;;
36443;SDS011;24692;45.642;13.806;2022-09-09T09:21:44;10.20;;;3.53;;
36443;SDS011;24692;45.642;13.806;2022-09-09T09:24:19;9.48;;;3.13;;
36443;SDS011;24692;45.642;13.806;2022-09-09T09:26:48;9.50;;;3.95;;
36443;SDS011;24692;45.642;13.806;2022-09-09T09:29:16;8.20;;;3.78;;
36443;SDS011;24692;45.642;13.806;2022-09-09T09:31:48;8.40;;;4.32;;
36443;SDS011;24692;45.642;13.806;2022-09-09T09:34:17;14.13;;;5.80;;
36443;SDS011;24692;45.642;13.806;2022-09-09T09:39:21;15.15;;;3.95;;
36443;SDS011;24692;45.642;13.806;2022-09-09T09:41:55;12.07;;;4.00;;
36443;SDS011;24692;45.642;13.806;2022-09-09T09:46:52;10.03;;;3.47;;
36443;SDS011;24692;45.642;13.806;2022-09-09T09:49:29;5.47;;;2.57;;
36443;SDS011;24692;45.642;13.806;2022-09-09T09:51:59;6.13;;;3.10;;
36443;SDS011;24692;45.642;13.806;2022-09-09T09:54:34;11.10;;;4.40;;
36443;SDS011;24692;45.642;13.806;2022-09-09T09:57:14;12.47;;;4.33;;
36443;SDS011;24692;45.642;13.806;2022-09-09T09:59:41;12.70;;;4.73;;
36443;SDS011;24692;45.642;13.806;2022-09-09T10:04:59;7.40;;;3.20;;
36443;SDS011;24692;45.642;13.806;2022-09-09T10:07:26;5.23;;;2.57;;
36443;SDS011;24692;45.642;13.806;2022-09-09T10:09:53;7.00;;;2.27;;
36443;SDS011;24692;45.642;13.806;2022-09-09T10:18:21;1.97;;;1.60;;
36443;SDS011;24692;45.642;13.806;2022-09-09T10:21:25;2.63;;;1.50;;
36443;SDS011;24692;45.642;13.806;2022-09-09T10:29:51;3.83;;;1.83;;
36443;SDS011;24692;45.642;13.806;2022-09-09T10:32:56;2.37;;;1.60;;
36443;SDS011;24692;45.642;13.806;2022-09-09T10:38:30;3.50;;;1.33;;
36443;SDS011;24692;45.642;13.806;2022-09-09T10:41:18;1.90;;;1.20;;
36443;SDS011;24692;45.642;13.806;2022-09-09T10:46:33;2.73;;;1.50;;
36443;SDS011;24692;45.642;13.806;2022-09-09T10:52:04;1.97;;;1.73;;
36443;SDS011;24692;45.642;13.806;2022-09-09T10:57:34;2.55;;;2.10;;
36443;SDS011;24692;45.642;13.806;2022-09-09T11:00:06;4.33;;;2.20;;
36443;SDS011;24692;45.642;13.806;2022-09-09T11:02:40;3.83;;;1.60;;
36443;SDS011;24692;45.642;13.806;2022-09-09T11:07:58;2.25;;;1.70;;
36443;SDS011;24692;45.642;13.806;2022-09-09T11:13:22;1.45;;;1.10;;
36443;SDS011;24692;45.642;13.806;2022-09-09T11:16:01;1.77;;;1.50;;
36443;SDS011;24692;45.642;13.806;2022-09-09T11:18:39;2.40;;;1.77;;
36443;SDS011;24692;45.642;13.806;2022-09-09T11:21:10;2.75;;;1.52;;
36443;SDS011;24692;45.642;13.806;2022-09-09T11:23:53;2.20;;;1.58;;
36443;SDS011;24692;45.642;13.806;2022-09-09T11:26:30;1.85;;;1.60;;
36443;SDS011;24692;45.642;13.806;2022-09-09T11:40:24;2.05;;;1.42;;
36443;SDS011;24692;45.642;13.806;2022-09-09T11:43:02;3.03;;;1.60;;
36443;SDS011;24692;45.642;13.806;2022-09-09T11:45:35;2.58;;;1.10;;
36443;SDS011;24692;45.642;13.806;2022-09-09T11:48:02;2.08;;;1.40;;
36443;SDS011;24692;45.642;13.806;2022-09-09T11:50:33;1.60;;;1.30;;
36443;SDS011;24692;45.642;13.806;2022-09-09T11:53:05;4.78;;;1.48;;
36443;SDS011;24692;45.642;13.806;2022-09-09T11:55:44;3.58;;;1.63;;
36443;SDS011;24692;45.642;13.806;2022-09-09T12:00:37;3.42;;;1.70;;
36443;SDS011;24692;45.642;13.806;2022-09-09T12:03:55;4.63;;;1.90;;
36443;SDS011;24692;45.642;13.806;2022-09-09T12:06:12;1.67;;;1.30;;
36443;SDS011;24692;45.642;13.806;2022-09-09T12:08:40;2.20;;;1.30;;
36443;SDS011;24692;45.642;13.806;2022-09-09T12:11:09;4.05;;;1.20;;
36443;SDS011;24692;45.642;13.806;2022-09-09T12:13:36;1.80;;;1.10;;
36443;SDS011;24692;45.642;13.806;2022-09-09T12:16:02;1.90;;;1.33;;
36443;SDS011;24692;45.642;13.806;2022-09-09T12:18:37;1.75;;;1.20;;
36443;SDS011;24692;45.642;13.806;2022-09-09T12:21:18;2.22;;;1.17;;
36443;SDS011;24692;45.642;13.806;2022-09-09T12:24:10;3.67;;;1.25;;
36443;SDS011;24692;45.642;13.806;2022-09-09T12:26:47;1.77;;;1.20;;
36443;SDS011;24692;45.642;13.806;2022-09-09T12:29:27;2.15;;;1.13;;
36443;SDS011;24692;45.642;13.806;2022-09-09T12:32:12;2.15;;;1.20;;
36443;SDS011;24692;45.642;13.806;2022-09-09T12:40:23;2.03;;;1.27;;
36443;SDS011;24692;45.642;13.806;2022-09-09T12:42:51;1.48;;;1.13;;
36443;SDS011;24692;45.642;13.806;2022-09-09T12:45:19;3.50;;;1.30;;
36443;SDS011;24692;45.642;13.806;2022-09-09T12:47:56;3.53;;;1.60;;
36443;SDS011;24692;45.642;13.806;2022-09-09T12:50:32;4.43;;;1.60;;
36443;SDS011;24692;45.642;13.806;2022-09-09T12:53:07;2.70;;;1.52;;
36443;SDS011;24692;45.642;13.806;2022-09-09T12:56:37;2.90;;;1.40;;
36443;SDS011;24692;45.642;13.806;2022-09-09T12:58:45;3.22;;;1.48;;
36443;SDS011;24692;45.642;13.806;2022-09-09T13:04:19;1.60;;;1.30;;
36443;SDS011;24692;45.642;13.806;2022-09-09T13:06:47;2.10;;;1.40;;
36443;SDS011;24692;45.642;13.806;2022-09-09T13:09:14;3.80;;;1.60;;
36443;SDS011;24692;45.642;13.806;2022-09-09T13:11:43;2.83;;;1.40;;
36443;SDS011;24692;45.642;13.806;2022-09-09T13:14:16;3.97;;;1.63;;
36443;SDS011;24692;45.642;13.806;2022-09-09T13:17:00;3.00;;;1.60;;
36443;SDS011;24692;45.642;13.806;2022-09-09T13:19:35;2.92;;;1.48;;
36443;SDS011;24692;45.642;13.806;2022-09-09T13:22:13;2.35;;;1.40;;
36443;SDS011;24692;45.642;13.806;2022-09-09T13:24:44;2.40;;;1.45;;
36443;SDS011;24692;45.642;13.806;2022-09-09T13:30:24;2.58;;;1.65;;
36443;SDS011;24692;45.642;13.806;2022-09-09T13:35:46;2.13;;;1.50;;
36443;SDS011;24692;45.642;13.806;2022-09-09T13:38:14;1.63;;;1.40;;
36443;SDS011;24692;45.642;13.806;2022-09-09T13:40:42;2.55;;;1.52;;
36443;SDS011;24692;45.642;13.806;2022-09-09T13:43:22;4.40;;;1.70;;
36443;SDS011;24692;45.642;13.806;2022-09-09T13:45:57;2.05;;;1.48;;
36443;SDS011;24692;45.642;13.806;2022-09-09T13:48:24;3.13;;;1.80;;
36443;SDS011;24692;45.642;13.806;2022-09-09T13:50:54;2.53;;;1.65;;
36443;SDS011;24692;45.642;13.806;2022-09-09T13:53:21;4.93;;;1.80;;
36443;SDS011;24692;45.642;13.806;2022-09-09T13:55:46;3.92;;;1.60;;
36443;SDS011;24692;45.642;13.806;2022-09-09T13:58:16;4.60;;;1.80;;
36443;SDS011;24692;45.642;13.806;2022-09-09T14:00:47;2.70;;;1.52;;
36443;SDS011;24692;45.642;13.806;2022-09-09T14:03:14;4.25;;;1.88;;
36443;SDS011;24692;45.642;13.806;2022-09-09T14:05:40;3.50;;;1.75;;
36443;SDS011;24692;45.642;13.806;2022-09-09T14:08:07;3.17;;;2.22;;
36443;SDS011;24692;45.642;13.806;2022-09-09T14:10:40;4.32;;;2.05;;
36443;SDS011;24692;45.642;13.806;2022-09-09T14:13:05;2.03;;;1.75;;
36443;SDS011;24692;45.642;13.806;2022-09-09T14:15:33;3.40;;;2.00;;
36443;SDS011;24692;45.642;13.806;2022-09-09T14:17:58;2.28;;;1.50;;
36443;SDS011;24692;45.642;13.806;2022-09-09T14:20:24;5.10;;;1.77;;
36443;SDS011;24692;45.642;13.806;2022-09-09T14:22:50;4.30;;;1.95;;
36443;SDS011;24692;45.642;13.806;2022-09-09T14:25:15;2.17;;;1.70;;
36443;SDS011;24692;45.642;13.806;2022-09-09T14:27:41;3.17;;;1.88;;
36443;SDS011;24692;45.642;13.806;2022-09-09T14:30:07;4.32;;;1.90;;
36443;SDS011;24692;45.642;13.806;2022-09-09T14:32:34;4.22;;;2.03;;
36443;SDS011;24692;45.642;13.806;2022-09-09T14:35:00;4.63;;;1.80;;
36443;SDS011;24692;45.642;13.806;2022-09-09T14:37:26;4.15;;;2.00;;
36443;SDS011;24692;45.642;13.806;2022-09-09T14:39:52;5.53;;;2.17;;
36443;SDS011;24692;45.642;13.806;2022-09-09T14:42:19;7.85;;;2.28;;
36443;SDS011;24692;45.642;13.806;2022-09-09T14:44:44;4.90;;;1.88;;
36443;SDS011;24692;45.642;13.806;2022-09-09T14:47:10;5.07;;;2.15;;
36443;SDS011;24692;45.642;13.806;2022-09-09T14:49:36;4.97;;;2.10;;
36443;SDS011;24692;45.642;13.806;2022-09-09T14:52:03;5.38;;;2.10;;
36443;SDS011;24692;45.642;13.806;2022-09-09T14:54:29;10.98;;;2.28;;
36443;SDS011;24692;45.642;13.806;2022-09-09T14:56:56;5.10;;;2.20;;
36443;SDS011;24692;45.642;13.806;2022-09-09T14:59:22;7.97;;;2.60;;
36443;SDS011;24692;45.642;13.806;2022-09-09T15:01:48;4.80;;;2.03;;
36443;SDS011;24692;45.642;13.806;2022-09-09T15:04:14;8.55;;;2.00;;
36443;SDS011;24692;45.642;13.806;2022-09-09T15:06:39;8.27;;;2.40;;
36443;SDS011;24692;45.642;13.806;2022-09-09T15:09:07;6.32;;;2.00;;
36443;SDS011;24692;45.642;13.806;2022-09-09T15:11:34;7.07;;;2.20;;
36443;SDS011;24692;45.642;13.806;2022-09-09T15:14:05;7.60;;;2.10;;
36443;SDS011;24692;45.642;13.806;2022-09-09T15:16:31;3.80;;;1.90;;
36443;SDS011;24692;45.642;13.806;2022-09-09T15:18:58;7.55;;;1.90;;
36443;SDS011;24692;45.642;13.806;2022-09-09T15:21:26;7.55;;;2.00;;
36443;SDS011;24692;45.642;13.806;2022-09-09T15:23:53;4.55;;;2.17;;
36443;SDS011;24692;45.642;13.806;2022-09-09T15:26:19;7.00;;;1.70;;
36443;SDS011;24692;45.642;13.806;2022-09-09T15:28:46;5.78;;;2.20;;
36443;SDS011;24692;45.642;13.806;2022-09-09T15:36:19;7.10;;;2.20;;
36443;SDS011;24692;45.642;13.806;2022-09-09T15:38:46;7.40;;;2.40;;
36443;SDS011;24692;45.642;13.806;2022-09-09T15:41:13;7.03;;;2.53;;
36443;SDS011;24692;45.642;13.806;2022-09-09T15:43:42;13.05;;;3.50;;
36443;SDS011;24692;45.642;13.806;2022-09-09T15:46:31;13.13;;;3.40;;
36443;SDS011;24692;45.642;13.806;2022-09-09T15:49:09;13.18;;;3.20;;
36443;SDS011;24692;45.642;13.806;2022-09-09T15:51:46;9.05;;;2.47;;
36443;SDS011;24692;45.642;13.806;2022-09-09T15:54:16;7.82;;;2.45;;
36443;SDS011;24692;45.642;13.806;2022-09-09T15:56:43;5.30;;;2.17;;
36443;SDS011;24692;45.642;13.806;2022-09-09T15:59:10;4.28;;;2.08;;
36443;SDS011;24692;45.642;13.806;2022-09-09T16:01:36;5.00;;;2.20;;
36443;SDS011;24692;45.642;13.806;2022-09-09T16:04:04;6.25;;;2.28;;
36443;SDS011;24692;45.642;13.806;2022-09-09T16:06:30;6.22;;;1.90;;
36443;SDS011;24692;45.642;13.806;2022-09-09T16:08:56;4.25;;;1.70;;
36443;SDS011;24692;45.642;13.806;2022-09-09T16:11:24;3.80;;;1.90;;
36443;SDS011;24692;45.642;13.806;2022-09-09T16:13:52;10.68;;;1.98;;
36443;SDS011;24692;45.642;13.806;2022-09-09T16:16:20;2.90;;;1.83;;
36443;SDS011;24692;45.642;13.806;2022-09-09T16:18:51;6.97;;;2.08;;
36443;SDS011;24692;45.642;13.806;2022-09-09T16:21:41;2.55;;;1.73;;
36443;SDS011;24692;45.642;13.806;2022-09-09T16:24:07;8.40;;;2.28;;
36443;SDS011;24692;45.642;13.806;2022-09-09T16:26:35;7.22;;;2.20;;
36443;SDS011;24692;45.642;13.806;2022-09-09T16:29:02;3.03;;;1.65;;
36443;SDS011;24692;45.642;13.806;2022-09-09T16:31:29;4.60;;;1.67;;
36443;SDS011;24692;45.642;13.806;2022-09-09T16:33:58;5.70;;;1.60;;
36443;SDS011;24692;45.642;13.806;2022-09-09T16:36:25;5.82;;;1.73;;
36443;SDS011;24692;45.642;13.806;2022-09-09T16:38:56;3.13;;;1.42;;
36443;SDS011;24692;45.642;13.806;2022-09-09T16:41:23;5.78;;;2.03;;
36443;SDS011;24692;45.642;13.806;2022-09-09T16:44:00;3.58;;;1.60;;
36443;SDS011;24692;45.642;13.806;2022-09-09T16:46:28;3.38;;;1.67;;
36443;SDS011;24692;45.642;13.806;2022-09-09T16:48:58;4.03;;;1.70;;
36443;SDS011;24692;45.642;13.806;2022-09-09T16:51:26;2.35;;;1.70;;
36443;SDS011;24692;45.642;13.806;2022-09-09T16:54:00;4.57;;;1.85;;
36443;SDS011;24692;45.642;13.806;2022-09-09T16:56:28;3.35;;;1.70;;
36443;SDS011;24692;45.642;13.806;2022-09-09T16:58:56;4.13;;;1.90;;
36443;SDS011;24692;45.642;13.806;2022-09-09T17:01:24;2.55;;;1.73;;
36443;SDS011;24692;45.642;13.806;2022-09-09T17:03:54;2.75;;;1.80;;
36443;SDS011;24692;45.642;13.806;2022-09-09T17:06:26;4.40;;;2.27;;
36443;SDS011;24692;45.642;13.806;2022-09-09T17:08:59;5.22;;;2.22;;
36443;SDS011;24692;45.642;13.806;2022-09-09T17:11:26;5.85;;;2.20;;
36443;SDS011;24692;45.642;13.806;2022-09-09T17:13:53;4.55;;;2.15;;
36443;SDS011;24692;45.642;13.806;2022-09-09T17:16:20;5.20;;;2.63;;
36443;SDS011;24692;45.642;13.806;2022-09-09T17:18:47;4.88;;;2.75;;